createdAt,value
2018-12-16T00:00:43.963Z,4.60
2018-12-16T00:01:43.950Z,4.20
2018-12-16T00:02:43.938Z,4.10
2018-12-16T00:03:43.931Z,4.50
2018-12-16T00:04:49.646Z,3.90
2018-12-16T00:05:43.904Z,4.50
2018-12-16T00:06:43.892Z,4.40
2018-12-16T00:07:43.882Z,4.40
2018-12-16T00:08:43.873Z,4.50
2018-12-16T00:09:43.859Z,4.60
2018-12-16T00:10:43.847Z,4.10
2018-12-16T00:11:43.835Z,5.20
2018-12-16T00:12:43.824Z,3.90
2018-12-16T00:13:43.813Z,4.60
2018-12-16T00:14:43.805Z,4.60
2018-12-16T00:15:43.790Z,4.50
2018-12-16T00:16:43.777Z,4.90
2018-12-16T00:17:43.767Z,4.00
2018-12-16T00:18:43.907Z,4.20
2018-12-16T00:19:43.744Z,4.20
2018-12-16T00:20:43.733Z,4.30
2018-12-16T00:21:43.721Z,4.30
2018-12-16T00:22:43.709Z,4.70
2018-12-16T00:23:43.700Z,5.10
2018-12-16T00:24:43.686Z,4.50
2018-12-16T00:25:43.677Z,4.00
2018-12-16T00:26:43.665Z,4.40
2018-12-16T00:27:43.655Z,5.00
2018-12-16T00:28:43.644Z,4.10
2018-12-16T00:29:43.631Z,4.80
2018-12-16T00:30:43.620Z,3.70
2018-12-16T00:31:43.609Z,4.30
2018-12-16T00:32:43.597Z,4.90
2018-12-16T00:33:43.586Z,4.70
2018-12-16T00:34:43.573Z,4.00
2018-12-16T00:35:43.565Z,5.10
2018-12-16T00:36:43.550Z,4.30
2018-12-16T00:37:43.540Z,4.70
2018-12-16T00:38:43.528Z,4.40
2018-12-16T00:39:43.517Z,4.10
2018-12-16T00:40:43.506Z,4.30
2018-12-16T00:41:43.494Z,4.20
2018-12-16T00:42:43.484Z,4.40
2018-12-16T00:43:43.473Z,4.20
2018-12-16T00:44:43.463Z,4.20
2018-12-16T00:45:43.450Z,4.80
2018-12-16T00:46:43.438Z,4.50
2018-12-16T00:47:43.428Z,5.20
2018-12-16T00:48:43.414Z,4.40
2018-12-16T00:49:43.405Z,4.60
2018-12-16T00:50:43.394Z,4.30
2018-12-16T00:51:43.384Z,4.40
2018-12-16T00:52:43.372Z,4.10
2018-12-16T00:53:43.359Z,4.70
2018-12-16T00:54:43.350Z,4.40
2018-12-16T00:55:43.339Z,4.40
2018-12-16T00:56:43.328Z,4.20
2018-12-16T00:57:43.313Z,5.00
2018-12-16T00:58:43.304Z,3.60
2018-12-16T00:59:43.294Z,4.40
2018-12-16T01:00:43.282Z,3.90
2018-12-16T01:01:43.269Z,4.30
2018-12-16T01:02:43.259Z,3.80
2018-12-16T01:03:43.257Z,3.90
2018-12-16T01:04:43.235Z,4.30
2018-12-16T01:05:43.225Z,3.30
2018-12-16T01:06:43.216Z,4.50
2018-12-16T01:07:43.203Z,3.60
2018-12-16T01:08:43.190Z,4.40
2018-12-16T01:09:43.180Z,4.40
2018-12-16T01:10:43.169Z,4.60
2018-12-16T01:11:43.158Z,4.30
2018-12-16T01:12:43.145Z,5.40
2018-12-16T01:13:43.135Z,3.80
2018-12-16T01:14:43.125Z,4.00
2018-12-16T01:15:43.112Z,4.70
2018-12-16T01:16:43.100Z,4.40
2018-12-16T01:17:43.089Z,4.00
2018-12-16T01:18:43.079Z,4.20
2018-12-16T01:19:43.069Z,5.00
2018-12-16T01:20:43.061Z,4.30
2018-12-16T01:21:43.045Z,4.30
2018-12-16T01:22:43.557Z,3.70
2018-12-16T01:23:43.022Z,4.30
2018-12-16T01:24:43.011Z,4.20
2018-12-16T01:25:43.001Z,4.40
2018-12-16T01:26:42.989Z,5.30
2018-12-16T01:27:42.978Z,4.60
2018-12-16T01:28:42.966Z,4.80
2018-12-16T01:29:42.955Z,4.50
2018-12-16T01:30:42.946Z,4.30
2018-12-16T01:31:42.933Z,4.70
2018-12-16T01:32:42.925Z,3.40
2018-12-16T01:33:42.911Z,4.70
2018-12-16T01:34:42.901Z,4.30
2018-12-16T01:35:42.889Z,4.50
2018-12-16T01:36:42.876Z,3.90
2018-12-16T01:37:42.867Z,4.00
2018-12-16T01:38:42.855Z,4.70
2018-12-16T01:39:42.844Z,4.80
2018-12-16T01:40:42.833Z,4.90
2018-12-16T01:41:42.821Z,4.60
2018-12-16T01:42:42.812Z,5.10
2018-12-16T01:43:42.802Z,4.20
2018-12-16T01:44:42.788Z,4.30
2018-12-16T01:45:42.777Z,4.30
2018-12-16T01:46:42.765Z,3.70
2018-12-16T01:47:42.755Z,4.80
2018-12-16T01:48:42.744Z,4.30
2018-12-16T01:49:42.733Z,4.80
2018-12-16T01:50:42.721Z,4.30
2018-12-16T01:51:42.711Z,3.80
2018-12-16T01:52:42.699Z,3.80
2018-12-16T01:53:42.689Z,5.20
2018-12-16T01:54:42.677Z,3.50
2018-12-16T01:55:42.666Z,4.50
2018-12-16T01:56:42.654Z,4.20
2018-12-16T01:57:42.645Z,5.10
2018-12-16T01:58:42.633Z,4.90
2018-12-16T01:59:42.621Z,4.30
2018-12-16T02:00:42.611Z,4.00
2018-12-16T02:01:42.598Z,4.10
2018-12-16T02:02:42.589Z,4.10
2018-12-16T02:03:42.577Z,4.70
2018-12-16T02:04:42.566Z,3.80
2018-12-16T02:05:42.555Z,3.60
2018-12-16T02:06:42.544Z,4.40
2018-12-16T02:07:42.534Z,4.20
2018-12-16T02:08:42.526Z,4.50
2018-12-16T02:09:42.572Z,4.70
2018-12-16T02:10:42.502Z,4.60
2018-12-16T02:11:42.488Z,3.40
2018-12-16T02:12:42.479Z,4.50
2018-12-16T02:13:42.466Z,4.00
2018-12-16T02:14:42.456Z,4.90
2018-12-16T02:15:42.444Z,5.00
2018-12-16T02:16:42.433Z,4.60
2018-12-16T02:17:42.427Z,4.30
2018-12-16T02:18:42.414Z,4.30
2018-12-16T02:19:42.400Z,4.30
2018-12-16T02:20:42.390Z,4.70
2018-12-16T02:21:42.379Z,3.20
2018-12-16T02:22:42.366Z,4.00
2018-12-16T02:23:42.356Z,3.30
2018-12-16T02:24:42.345Z,4.00
2018-12-16T02:25:42.335Z,4.20
2018-12-16T02:26:42.323Z,3.70
2018-12-16T02:27:42.313Z,4.10
2018-12-16T02:28:42.301Z,3.70
2018-12-16T02:29:42.291Z,3.10
2018-12-16T02:30:42.278Z,3.80
2018-12-16T02:31:42.278Z,3.20
2018-12-16T02:32:42.259Z,3.70
2018-12-16T02:33:42.245Z,4.40
2018-12-16T02:34:42.234Z,4.90
2018-12-16T02:35:42.225Z,4.70
2018-12-16T02:36:42.218Z,3.80
2018-12-16T02:37:42.201Z,3.10
2018-12-16T02:38:42.191Z,4.50
2018-12-16T02:39:42.183Z,3.90
2018-12-16T02:40:42.169Z,3.90
2018-12-16T02:41:42.161Z,3.00
2018-12-16T02:42:42.147Z,4.40
2018-12-16T02:43:42.138Z,4.20
2018-12-16T02:44:42.126Z,4.00
2018-12-16T02:45:42.113Z,4.30
2018-12-16T02:46:42.103Z,4.70
2018-12-16T02:47:42.092Z,4.60
2018-12-16T02:48:42.083Z,3.60
2018-12-16T02:49:42.070Z,4.50
2018-12-16T02:50:42.063Z,4.90
2018-12-16T02:51:42.062Z,4.60
2018-12-16T02:52:42.038Z,3.80
2018-12-16T02:53:42.027Z,3.00
2018-12-16T02:54:42.017Z,4.00
2018-12-16T02:55:42.005Z,3.20
2018-12-16T02:56:41.995Z,5.20
2018-12-16T02:57:41.983Z,3.60
2018-12-16T02:58:41.975Z,4.20
2018-12-16T02:59:41.963Z,4.30
2018-12-16T03:00:41.952Z,4.10
2018-12-16T03:01:41.940Z,3.90
2018-12-16T03:02:41.934Z,4.40
2018-12-16T03:03:41.924Z,4.00
2018-12-16T03:04:41.907Z,3.80
2018-12-16T03:05:41.898Z,3.80
2018-12-16T03:06:41.888Z,3.70
2018-12-16T03:07:41.875Z,4.10
2018-12-16T03:08:41.864Z,4.00
2018-12-16T03:09:41.853Z,4.40
2018-12-16T03:10:41.845Z,3.60
2018-12-16T03:11:41.833Z,4.50
2018-12-16T03:12:41.820Z,3.60
2018-12-16T03:13:41.811Z,4.90
2018-12-16T03:14:41.801Z,4.30
2018-12-16T03:15:41.789Z,3.80
2018-12-16T03:16:41.778Z,3.50
2018-12-16T03:17:41.767Z,3.80
2018-12-16T03:18:41.757Z,4.90
2018-12-16T03:19:41.747Z,3.60
2018-12-16T03:20:42.932Z,4.20
2018-12-16T03:21:41.729Z,4.00
2018-12-16T03:22:41.713Z,3.20
2018-12-16T03:23:41.703Z,3.80
2018-12-16T03:24:41.709Z,4.40
2018-12-16T03:25:41.681Z,4.40
2018-12-16T03:26:41.672Z,3.90
2018-12-16T03:27:41.661Z,4.50
2018-12-16T03:28:41.649Z,4.40
2018-12-16T03:29:41.639Z,4.10
2018-12-16T03:30:41.639Z,4.10
2018-12-16T03:31:41.618Z,4.60
2018-12-16T03:32:41.606Z,4.00
2018-12-16T03:33:41.686Z,2.90
2018-12-16T03:34:41.585Z,2.90
2018-12-16T03:35:41.582Z,4.50
2018-12-16T03:36:41.563Z,4.80
2018-12-16T03:37:41.553Z,4.30
2018-12-16T03:38:41.542Z,5.10
2018-12-16T03:39:41.531Z,4.20
2018-12-16T03:40:41.523Z,4.20
2018-12-16T03:41:41.509Z,3.30
2018-12-16T03:42:41.507Z,3.50
2018-12-16T03:43:41.488Z,4.40
2018-12-16T03:44:41.480Z,4.80
2018-12-16T03:45:41.467Z,4.90
2018-12-16T03:46:41.457Z,4.20
2018-12-16T03:47:41.449Z,2.90
2018-12-16T03:48:41.434Z,3.60
2018-12-16T03:49:41.440Z,3.70
2018-12-16T03:50:41.421Z,4.20
2018-12-16T03:51:41.404Z,4.50
2018-12-16T03:52:41.393Z,4.10
2018-12-16T03:53:41.383Z,4.10
2018-12-16T03:54:41.374Z,4.10
2018-12-16T03:55:41.360Z,4.00
2018-12-16T03:56:41.365Z,4.40
2018-12-16T03:57:41.345Z,4.40
2018-12-16T03:58:41.329Z,4.20
2018-12-16T03:59:41.318Z,4.20
2018-12-16T04:00:41.307Z,4.20
2018-12-16T04:01:41.298Z,4.50
2018-12-16T04:02:41.286Z,4.40
2018-12-16T04:03:41.278Z,3.70
2018-12-16T04:04:41.267Z,3.70
2018-12-16T04:05:41.255Z,4.30
2018-12-16T04:06:43.165Z,5.20
2018-12-16T04:07:41.234Z,4.20
2018-12-16T04:08:41.222Z,4.90
2018-12-16T04:09:41.215Z,4.60
2018-12-16T04:10:41.201Z,5.20
2018-12-16T04:11:41.193Z,5.00
2018-12-16T04:12:41.181Z,4.50
2018-12-16T04:13:41.169Z,4.90
2018-12-16T04:14:41.405Z,5.10
2018-12-16T04:15:41.149Z,4.70
2018-12-16T04:16:41.139Z,5.10
2018-12-16T04:17:41.127Z,3.80
2018-12-16T04:18:41.117Z,3.80
2018-12-16T04:19:41.107Z,5.00
2018-12-16T04:20:41.095Z,4.50
2018-12-16T04:21:41.085Z,4.40
2018-12-16T04:22:41.075Z,4.60
2018-12-16T04:23:41.064Z,4.70
2018-12-16T04:24:41.056Z,5.20
2018-12-16T04:25:41.048Z,5.10
2018-12-16T04:26:41.031Z,4.80
2018-12-16T04:27:41.021Z,4.40
2018-12-16T04:28:41.012Z,4.10
2018-12-16T04:29:41.000Z,4.90
2018-12-16T04:30:40.991Z,4.80
2018-12-16T04:31:40.979Z,5.60
2018-12-16T04:32:40.967Z,4.90
2018-12-16T04:33:40.958Z,4.80
2018-12-16T04:34:40.951Z,4.40
2018-12-16T04:35:40.935Z,4.70
2018-12-16T04:36:40.927Z,4.90
2018-12-16T04:37:40.916Z,4.10
2018-12-16T04:38:40.904Z,5.10
2018-12-16T04:39:40.892Z,5.60
2018-12-16T04:40:40.883Z,4.50
2018-12-16T04:41:40.871Z,5.00
2018-12-16T04:42:40.861Z,4.60
2018-12-16T04:43:40.852Z,5.50
2018-12-16T04:44:40.837Z,4.20
2018-12-16T04:45:40.828Z,4.50
2018-12-16T04:46:40.819Z,5.20
2018-12-16T04:47:40.806Z,5.20
2018-12-16T04:48:40.795Z,4.90
2018-12-16T04:49:40.786Z,4.20
2018-12-16T04:50:40.774Z,5.00
2018-12-16T04:51:40.767Z,4.90
2018-12-16T04:52:40.753Z,4.70
2018-12-16T04:53:40.743Z,5.10
2018-12-16T04:54:40.734Z,4.90
2018-12-16T04:55:40.722Z,5.10
2018-12-16T04:56:40.708Z,4.70
2018-12-16T04:57:40.699Z,4.70
2018-12-16T04:58:40.689Z,5.80
2018-12-16T04:59:40.679Z,5.20
2018-12-16T05:00:40.666Z,4.80
2018-12-16T05:01:40.658Z,4.80
2018-12-16T05:02:40.646Z,4.80
2018-12-16T05:03:40.638Z,4.80
2018-12-16T05:04:40.624Z,4.50
2018-12-16T05:05:40.614Z,5.00
2018-12-16T05:06:40.602Z,4.80
2018-12-16T05:07:40.592Z,5.80
2018-12-16T05:08:40.581Z,4.60
2018-12-16T05:09:40.569Z,4.30
2018-12-16T05:10:40.560Z,5.20
2018-12-16T05:11:40.550Z,4.10
2018-12-16T05:12:40.540Z,4.20
2018-12-16T05:13:40.527Z,3.30
2018-12-16T05:14:40.517Z,4.60
2018-12-16T05:15:40.506Z,5.30
2018-12-16T05:16:40.496Z,4.80
2018-12-16T05:17:40.485Z,5.00
2018-12-16T05:18:40.475Z,5.30
2018-12-16T05:19:40.463Z,4.70
2018-12-16T05:20:40.452Z,5.70
2018-12-16T05:21:40.443Z,5.10
2018-12-16T05:22:40.430Z,5.10
2018-12-16T05:23:42.032Z,5.00
2018-12-16T05:24:40.409Z,4.50
2018-12-16T05:25:40.399Z,5.30
2018-12-16T05:26:40.388Z,5.50
2018-12-16T05:27:40.377Z,5.00
2018-12-16T05:28:40.366Z,6.20
2018-12-16T05:29:40.354Z,5.10
2018-12-16T05:30:40.344Z,4.80
2018-12-16T05:31:40.334Z,5.40
2018-12-16T05:32:40.324Z,5.40
2018-12-16T05:33:40.312Z,5.40
2018-12-16T05:34:40.302Z,5.60
2018-12-16T05:35:40.296Z,5.50
2018-12-16T05:36:40.280Z,5.80
2018-12-16T05:37:40.271Z,6.10
2018-12-16T05:38:40.257Z,5.10
2018-12-16T05:39:40.248Z,5.70
2018-12-16T05:40:40.236Z,6.00
2018-12-16T05:41:40.226Z,5.50
2018-12-16T05:42:40.216Z,5.30
2018-12-16T05:43:40.208Z,6.00
2018-12-16T05:44:40.193Z,5.50
2018-12-16T05:45:40.183Z,6.00
2018-12-16T05:46:40.174Z,6.60
2018-12-16T05:47:40.162Z,5.80
2018-12-16T05:48:40.149Z,5.10
2018-12-16T05:49:40.139Z,5.00
2018-12-16T05:50:40.129Z,6.00
2018-12-16T05:51:40.118Z,6.10
2018-12-16T05:52:40.107Z,5.80
2018-12-16T05:53:40.098Z,6.80
2018-12-16T05:54:40.088Z,6.30
2018-12-16T05:55:40.075Z,5.40
2018-12-16T05:56:40.064Z,5.20
2018-12-16T05:57:40.052Z,5.20
2018-12-16T05:58:40.043Z,5.80
2018-12-16T05:59:40.031Z,5.70
2018-12-16T06:00:40.021Z,6.00
2018-12-16T06:01:40.010Z,5.60
2018-12-16T06:02:39.999Z,6.50
2018-12-16T06:03:39.992Z,5.20
2018-12-16T06:04:39.977Z,5.80
2018-12-16T06:05:39.968Z,6.80
2018-12-16T06:06:39.957Z,6.10
2018-12-16T06:07:39.945Z,5.20
2018-12-16T06:08:39.934Z,5.50
2018-12-16T06:09:39.922Z,5.90
2018-12-16T06:10:39.912Z,5.60
2018-12-16T06:11:39.903Z,6.50
2018-12-16T06:12:39.891Z,6.20
2018-12-16T06:13:39.880Z,5.70
2018-12-16T06:14:39.869Z,6.10
2018-12-16T06:15:39.857Z,6.80
2018-12-16T06:16:39.848Z,6.20
2018-12-16T06:17:39.839Z,6.40
2018-12-16T06:18:39.825Z,6.40
2018-12-16T06:19:39.818Z,5.70
2018-12-16T06:20:39.804Z,6.10
2018-12-16T06:21:39.792Z,4.80
2018-12-16T06:22:39.781Z,6.60
2018-12-16T06:23:39.770Z,6.00
2018-12-16T06:24:39.760Z,6.10
2018-12-16T06:25:39.751Z,5.90
2018-12-16T06:26:41.069Z,5.20
2018-12-16T06:27:39.728Z,5.60
2018-12-16T06:28:39.715Z,6.00
2018-12-16T06:29:39.706Z,5.80
2018-12-16T06:30:39.700Z,5.90
2018-12-16T06:31:39.684Z,5.90
2018-12-16T06:32:39.672Z,6.40
2018-12-16T06:33:39.662Z,5.80
2018-12-16T06:34:39.652Z,7.00
2018-12-16T06:35:39.641Z,5.40
2018-12-16T06:36:39.630Z,7.20
2018-12-16T06:37:39.619Z,6.60
2018-12-16T06:38:39.608Z,5.80
2018-12-16T06:39:39.597Z,5.90
2018-12-16T06:40:39.587Z,6.40
2018-12-16T06:41:39.576Z,5.30
2018-12-16T06:42:39.565Z,6.20
2018-12-16T06:43:39.553Z,6.10
2018-12-16T06:44:39.544Z,5.70
2018-12-16T06:45:39.531Z,6.20
2018-12-16T06:46:39.521Z,6.60
2018-12-16T06:47:39.511Z,5.70
2018-12-16T06:48:39.499Z,6.30
2018-12-16T06:49:39.490Z,5.10
2018-12-16T06:50:39.479Z,4.70
2018-12-16T06:51:39.481Z,6.00
2018-12-16T06:52:39.457Z,6.20
2018-12-16T06:53:39.455Z,5.80
2018-12-16T06:54:39.435Z,5.60
2018-12-16T06:55:43.368Z,6.00
2018-12-16T06:56:39.412Z,6.10
2018-12-16T06:57:39.401Z,6.10
2018-12-16T06:58:39.391Z,6.90
2018-12-16T06:59:39.381Z,6.90
2018-12-16T07:00:39.370Z,5.40
2018-12-16T07:01:39.359Z,5.70
2018-12-16T07:02:39.348Z,6.10
2018-12-16T07:03:39.337Z,7.10
2018-12-16T07:04:39.327Z,5.90
2018-12-16T07:05:39.318Z,6.20
2018-12-16T07:06:39.306Z,6.30
2018-12-16T07:07:39.294Z,6.40
2018-12-16T07:08:39.284Z,5.50
2018-12-16T07:09:39.273Z,6.40
2018-12-16T07:10:39.265Z,5.70
2018-12-16T07:11:39.271Z,5.70
2018-12-16T07:12:39.241Z,6.10
2018-12-16T07:13:39.231Z,6.00
2018-12-16T07:14:39.220Z,6.50
2018-12-16T07:15:39.210Z,6.80
2018-12-16T07:16:40.619Z,6.60
2018-12-16T07:17:39.196Z,6.10
2018-12-16T07:18:39.184Z,5.60
2018-12-16T07:19:39.171Z,6.90
2018-12-16T07:20:39.164Z,6.50
2018-12-16T07:21:39.146Z,7.40
2018-12-16T07:22:39.138Z,6.10
2018-12-16T07:23:39.124Z,5.80
2018-12-16T07:24:39.135Z,7.80
2018-12-16T07:25:39.112Z,5.80
2018-12-16T07:26:39.091Z,7.00
2018-12-16T07:27:39.094Z,6.40
2018-12-16T07:28:39.071Z,6.60
2018-12-16T07:29:39.093Z,5.90
2018-12-16T07:30:39.052Z,6.30
2018-12-16T07:31:39.040Z,4.80
2018-12-16T07:32:39.028Z,6.70
2018-12-16T07:33:39.018Z,6.20
2018-12-16T07:34:39.008Z,5.60
2018-12-16T07:35:38.997Z,5.90
2018-12-16T07:36:38.987Z,5.40
2018-12-16T07:37:38.987Z,4.80
2018-12-16T07:38:38.967Z,5.50
2018-12-16T07:39:38.962Z,6.70
2018-12-16T07:40:38.945Z,6.20
2018-12-16T07:41:38.934Z,6.40
2018-12-16T07:42:38.948Z,5.80
2018-12-16T07:43:38.932Z,6.20
2018-12-16T07:44:38.909Z,6.10
2018-12-16T07:45:38.892Z,6.40
2018-12-16T07:46:38.887Z,7.00
2018-12-16T07:47:38.870Z,5.90
2018-12-16T07:48:38.894Z,6.00
2018-12-16T07:49:38.849Z,6.40
2018-12-16T07:50:38.841Z,6.30
2018-12-16T07:51:38.830Z,5.50
2018-12-16T07:52:38.818Z,6.10
2018-12-16T07:53:38.806Z,6.90
2018-12-16T07:54:38.817Z,7.10
2018-12-16T07:55:38.786Z,6.50
2018-12-16T07:56:38.774Z,6.40
2018-12-16T07:57:38.765Z,8.20
2018-12-16T07:58:38.754Z,6.90
2018-12-16T07:59:38.747Z,6.90
2018-12-16T08:00:38.765Z,7.10
2018-12-16T08:01:38.723Z,7.00
2018-12-16T08:02:38.712Z,5.80
2018-12-16T08:03:38.702Z,7.80
2018-12-16T08:04:38.737Z,6.20
2018-12-16T08:05:38.681Z,7.00
2018-12-16T08:06:38.670Z,6.60
2018-12-16T08:07:38.660Z,6.40
2018-12-16T08:08:38.650Z,5.60
2018-12-16T08:09:38.639Z,6.60
2018-12-16T08:10:38.628Z,6.40
2018-12-16T08:11:38.619Z,6.60
2018-12-16T08:12:38.612Z,6.50
2018-12-16T08:13:38.598Z,7.50
2018-12-16T08:14:38.588Z,6.50
2018-12-16T08:15:38.576Z,6.80
2018-12-16T08:16:38.566Z,7.30
2018-12-16T08:17:38.556Z,7.20
2018-12-16T08:18:38.544Z,7.00
2018-12-16T08:19:38.534Z,5.90
2018-12-16T08:20:38.524Z,6.80
2018-12-16T08:21:38.516Z,7.00
2018-12-16T08:22:38.509Z,6.40
2018-12-16T08:23:38.494Z,6.20
2018-12-16T08:24:38.481Z,7.40
2018-12-16T08:25:38.471Z,7.10
2018-12-16T08:26:38.462Z,5.90
2018-12-16T08:27:38.453Z,7.00
2018-12-16T08:28:38.444Z,6.60
2018-12-16T08:29:38.430Z,6.70
2018-12-16T08:30:38.419Z,5.90
2018-12-16T08:31:38.408Z,7.40
2018-12-16T08:32:38.396Z,7.00
2018-12-16T08:33:38.388Z,6.70
2018-12-16T08:34:38.378Z,6.80
2018-12-16T08:35:38.367Z,6.60
2018-12-16T08:36:38.356Z,7.10
2018-12-16T08:37:38.346Z,6.80
2018-12-16T08:38:38.336Z,6.30
2018-12-16T08:39:38.326Z,7.40
2018-12-16T08:40:38.363Z,5.90
2018-12-16T08:41:38.305Z,6.20
2018-12-16T08:42:38.298Z,7.50
2018-12-16T08:43:38.284Z,7.00
2018-12-16T08:44:38.273Z,7.40
2018-12-16T08:45:38.264Z,6.70
2018-12-16T08:46:38.253Z,6.20
2018-12-16T08:47:38.244Z,5.80
2018-12-16T08:48:38.233Z,7.40
2018-12-16T08:49:38.221Z,7.10
2018-12-16T08:50:38.211Z,7.00
2018-12-16T08:51:38.200Z,6.70
2018-12-16T08:52:38.191Z,6.70
2018-12-16T08:53:38.181Z,7.00
2018-12-16T08:54:38.171Z,7.60
2018-12-16T08:55:38.160Z,7.60
2018-12-16T08:56:38.149Z,6.50
2018-12-16T08:57:38.139Z,6.60
2018-12-16T08:58:38.131Z,7.50
2018-12-16T08:59:38.120Z,7.20
2018-12-16T09:00:38.107Z,7.10
2018-12-16T09:01:38.101Z,6.50
2018-12-16T09:02:38.087Z,8.30
2018-12-16T09:03:38.078Z,6.60
2018-12-16T09:04:38.067Z,6.30
2018-12-16T09:05:38.055Z,6.20
2018-12-16T09:06:38.046Z,7.40
2018-12-16T09:07:38.036Z,7.90
2018-12-16T09:08:38.024Z,8.10
2018-12-16T09:09:38.016Z,6.50
2018-12-16T09:10:38.005Z,6.70
2018-12-16T09:11:37.994Z,7.40
2018-12-16T09:12:37.982Z,6.80
2018-12-16T09:13:37.975Z,7.50
2018-12-16T09:14:37.964Z,7.70
2018-12-16T09:15:37.952Z,7.90
2018-12-16T09:16:37.942Z,7.00
2018-12-16T09:17:37.933Z,6.80
2018-12-16T09:18:37.921Z,6.90
2018-12-16T09:19:37.915Z,6.40
2018-12-16T09:20:37.901Z,6.90
2018-12-16T09:21:38.968Z,7.40
2018-12-16T09:22:37.881Z,7.80
2018-12-16T09:23:37.870Z,7.40
2018-12-16T09:24:37.867Z,8.30
2018-12-16T09:25:37.850Z,7.10
2018-12-16T09:26:37.840Z,7.50
2018-12-16T09:27:37.829Z,8.30
2018-12-16T09:28:37.817Z,7.40
2018-12-16T09:29:37.811Z,6.90
2018-12-16T09:30:37.798Z,6.60
2018-12-16T09:31:37.788Z,7.20
2018-12-16T09:32:37.778Z,7.00
2018-12-16T09:33:37.770Z,7.50
2018-12-16T09:34:37.757Z,7.00
2018-12-16T09:35:37.745Z,7.50
2018-12-16T09:36:37.736Z,7.70
2018-12-16T09:37:37.725Z,8.20
2018-12-16T09:38:37.715Z,7.50
2018-12-16T09:39:37.706Z,7.60
2018-12-16T09:40:37.693Z,7.00
2018-12-16T09:41:37.685Z,8.40
2018-12-16T09:42:37.675Z,7.50
2018-12-16T09:43:37.665Z,8.00
2018-12-16T09:44:37.653Z,8.30
2018-12-16T09:45:37.643Z,8.10
2018-12-16T09:46:37.633Z,7.30
2018-12-16T09:47:37.623Z,7.50
2018-12-16T09:48:37.612Z,7.50
2018-12-16T09:49:37.602Z,7.10
2018-12-16T09:50:37.592Z,7.90
2018-12-16T09:51:37.582Z,7.50
2018-12-16T09:52:37.574Z,7.30
2018-12-16T09:53:37.562Z,6.70
2018-12-16T09:54:43.992Z,7.60
2018-12-16T09:55:37.545Z,7.70
2018-12-16T09:56:37.532Z,7.80
2018-12-16T09:57:37.524Z,9.70
2018-12-16T09:58:37.513Z,8.00
2018-12-16T09:59:37.503Z,7.20
2018-12-16T10:00:37.492Z,8.70
2018-12-16T10:01:37.483Z,8.10
2018-12-16T10:02:37.473Z,8.30
2018-12-16T10:03:37.467Z,8.70
2018-12-16T10:04:37.453Z,7.30
2018-12-16T10:05:37.443Z,7.40
2018-12-16T10:06:37.433Z,7.70
2018-12-16T10:07:37.424Z,7.60
2018-12-16T10:08:37.414Z,7.30
2018-12-16T10:09:37.406Z,9.00
2018-12-16T10:10:37.394Z,8.30
2018-12-16T10:11:37.385Z,7.10
2018-12-16T10:12:37.373Z,7.90
2018-12-16T10:13:37.364Z,8.30
2018-12-16T10:14:37.354Z,7.60
2018-12-16T10:15:37.347Z,7.50
2018-12-16T10:16:37.335Z,8.60
2018-12-16T10:17:37.324Z,7.90
2018-12-16T10:18:37.315Z,7.90
2018-12-16T10:19:37.361Z,8.70
2018-12-16T10:20:37.295Z,8.30
2018-12-16T10:21:37.285Z,8.50
2018-12-16T10:22:37.277Z,10.60
2018-12-16T10:23:37.267Z,12.20
2018-12-16T10:24:37.257Z,8.60
2018-12-16T10:25:37.246Z,6.70
2018-12-16T10:26:37.237Z,7.20
2018-12-16T10:27:37.228Z,9.00
2018-12-16T10:28:37.217Z,9.10
2018-12-16T10:29:37.208Z,8.60
2018-12-16T10:30:37.198Z,9.50
2018-12-16T10:31:37.189Z,6.50
2018-12-16T10:32:37.181Z,8.10
2018-12-16T10:33:37.168Z,9.30
2018-12-16T10:34:37.158Z,7.80
2018-12-16T10:35:37.150Z,9.00
2018-12-16T10:36:37.140Z,8.10
2018-12-16T10:37:37.131Z,7.40
2018-12-16T10:38:37.121Z,7.50
2018-12-16T10:39:37.111Z,8.60
2018-12-16T10:40:37.101Z,8.70
2018-12-16T10:41:37.092Z,8.70
2018-12-16T10:42:37.083Z,10.30
2018-12-16T10:43:37.072Z,8.60
2018-12-16T10:44:37.062Z,6.70
2018-12-16T10:45:37.053Z,8.40
2018-12-16T10:46:37.042Z,8.20
2018-12-16T10:47:37.033Z,8.20
2018-12-16T10:48:37.023Z,8.50
2018-12-16T10:49:37.019Z,9.40
2018-12-16T10:50:37.004Z,8.00
2018-12-16T10:51:36.995Z,8.50
2018-12-16T10:52:36.984Z,8.60
2018-12-16T10:53:36.975Z,8.20
2018-12-16T10:54:36.967Z,9.10
2018-12-16T10:55:36.957Z,8.70
2018-12-16T10:56:36.945Z,7.50
2018-12-16T10:57:36.936Z,8.20
2018-12-16T10:58:36.929Z,8.00
2018-12-16T10:59:36.919Z,8.60
2018-12-16T11:00:36.906Z,8.90
2018-12-16T11:01:36.897Z,7.50
2018-12-16T11:02:36.889Z,8.80
2018-12-16T11:03:36.878Z,9.10
2018-12-16T11:04:36.869Z,9.10
2018-12-16T11:05:36.860Z,8.70
2018-12-16T11:06:36.851Z,9.80
2018-12-16T11:07:36.840Z,13.50
2018-12-16T11:08:36.831Z,9.70
2018-12-16T11:09:36.820Z,10.20
2018-12-16T11:10:36.816Z,10.30
2018-12-16T11:11:36.804Z,10.80
2018-12-16T11:12:36.793Z,10.30
2018-12-16T11:13:36.785Z,11.00
2018-12-16T11:14:36.777Z,11.60
2018-12-16T11:15:36.764Z,8.60
2018-12-16T11:16:36.756Z,9.80
2018-12-16T11:17:36.746Z,8.40
2018-12-16T11:18:36.735Z,9.20
2018-12-16T11:19:36.729Z,9.90
2018-12-16T11:20:36.719Z,8.90
2018-12-16T11:21:36.707Z,10.50
2018-12-16T11:22:36.697Z,11.50
2018-12-16T11:23:36.690Z,11.50
2018-12-16T11:24:36.678Z,9.60
2018-12-16T11:25:36.670Z,11.10
2018-12-16T11:26:36.660Z,10.70
2018-12-16T11:27:36.653Z,9.90
2018-12-16T11:28:36.641Z,9.80
2018-12-16T11:29:36.934Z,10.90
2018-12-16T11:30:36.624Z,9.60
2018-12-16T11:31:36.616Z,9.60
2018-12-16T11:32:36.635Z,9.90
2018-12-16T11:33:36.595Z,10.80
2018-12-16T11:34:36.588Z,11.80
2018-12-16T11:35:36.576Z,11.30
2018-12-16T11:36:36.567Z,11.60
2018-12-16T11:37:36.559Z,10.50
2018-12-16T11:38:36.550Z,11.30
2018-12-16T11:39:36.540Z,10.90
2018-12-16T11:40:36.529Z,10.90
2018-12-16T11:41:36.520Z,12.00
2018-12-16T11:42:36.512Z,9.90
2018-12-16T11:43:36.502Z,11.30
2018-12-16T11:44:36.494Z,11.50
2018-12-16T11:45:36.484Z,9.90
2018-12-16T11:46:36.473Z,8.50
2018-12-16T11:47:36.466Z,9.10
2018-12-16T11:48:36.455Z,8.80
2018-12-16T11:49:36.446Z,9.40
2018-12-16T11:50:36.438Z,8.80
2018-12-16T11:51:36.433Z,8.60
2018-12-16T11:52:36.418Z,8.70
2018-12-16T11:53:36.408Z,8.20
2018-12-16T11:54:36.400Z,8.90
2018-12-16T11:55:36.390Z,9.30
2018-12-16T11:56:36.381Z,8.40
2018-12-16T11:57:36.372Z,9.30
2018-12-16T11:58:36.365Z,7.50
2018-12-16T11:59:36.354Z,9.10
2018-12-16T12:00:36.344Z,9.40
2018-12-16T12:01:36.334Z,8.10
2018-12-16T12:02:36.327Z,7.70
2018-12-16T12:03:36.317Z,8.50
2018-12-16T12:04:36.308Z,9.30
2018-12-16T12:05:36.298Z,9.70
2018-12-16T12:06:36.290Z,8.70
2018-12-16T12:07:36.281Z,8.70
2018-12-16T12:08:36.270Z,8.80
2018-12-16T12:09:36.261Z,7.50
2018-12-16T12:10:36.252Z,9.50
2018-12-16T12:11:36.244Z,8.70
2018-12-16T12:12:36.234Z,9.20
2018-12-16T12:13:36.227Z,8.60
2018-12-16T12:14:36.221Z,9.30
2018-12-16T12:15:36.208Z,9.70
2018-12-16T12:16:36.198Z,9.20
2018-12-16T12:17:36.188Z,9.20
2018-12-16T12:18:36.182Z,8.40
2018-12-16T12:19:36.173Z,9.80
2018-12-16T12:20:36.162Z,9.20
2018-12-16T12:21:36.152Z,9.30
2018-12-16T12:22:36.144Z,9.80
2018-12-16T12:23:36.135Z,8.30
2018-12-16T12:24:36.126Z,9.10
2018-12-16T12:25:36.116Z,9.60
2018-12-16T12:26:36.108Z,8.20
2018-12-16T12:27:36.102Z,9.00
2018-12-16T12:28:36.090Z,8.60
2018-12-16T12:29:36.081Z,9.30
2018-12-16T12:30:36.072Z,8.30
2018-12-16T12:31:36.063Z,9.00
2018-12-16T12:32:36.053Z,8.80
2018-12-16T12:33:36.047Z,9.20
2018-12-16T12:34:36.037Z,9.10
2018-12-16T12:35:36.033Z,8.20
2018-12-16T12:36:36.019Z,9.70
2018-12-16T12:37:36.010Z,9.10
2018-12-16T12:38:36.001Z,9.20
2018-12-16T12:39:35.991Z,9.50
2018-12-16T12:40:35.986Z,8.50
2018-12-16T12:41:35.975Z,8.80
2018-12-16T12:42:35.966Z,8.40
2018-12-16T12:43:35.958Z,8.60
2018-12-16T12:44:35.948Z,9.40
2018-12-16T12:45:35.938Z,9.10
2018-12-16T12:46:35.929Z,9.90
2018-12-16T12:47:35.921Z,11.00
2018-12-16T12:48:35.912Z,9.60
2018-12-16T12:49:35.904Z,9.50
2018-12-16T12:50:35.895Z,9.70
2018-12-16T12:51:35.887Z,9.20
2018-12-16T12:52:35.878Z,10.10
2018-12-16T12:53:35.868Z,10.40
2018-12-16T12:54:35.861Z,10.70
2018-12-16T12:55:35.851Z,9.30
2018-12-16T12:56:35.847Z,9.90
2018-12-16T12:57:35.836Z,10.30
2018-12-16T12:58:35.824Z,11.20
2018-12-16T12:59:35.817Z,10.20
2018-12-16T13:00:35.806Z,11.70
2018-12-16T13:01:35.798Z,9.50
2018-12-16T13:02:35.790Z,9.80
2018-12-16T13:03:35.784Z,10.00
2018-12-16T13:04:35.771Z,10.00
2018-12-16T13:05:37.048Z,9.90
2018-12-16T13:06:35.754Z,10.40
2018-12-16T13:07:35.752Z,10.20
2018-12-16T13:08:35.737Z,9.60
2018-12-16T13:09:35.727Z,9.30
2018-12-16T13:10:35.868Z,10.20
2018-12-16T13:11:35.710Z,10.20
2018-12-16T13:12:35.701Z,11.00
2018-12-16T13:13:35.693Z,10.80
2018-12-16T13:14:35.682Z,9.90
2018-12-16T13:15:35.674Z,10.90
2018-12-16T13:16:35.665Z,10.30